Time;durP1;ratioP1;P1;durP2;ratioP2;P2;SDS_P1;SDS_P2;PMS_P1;PMS_P2;Temp;Humidity;BMP_temperature;BMP_pressure;BME280_temperature;BME280_humidity;BME280_pressure;Samples;Min_cycle;Max_cycle;Signal;HPM_P1;HPM_P2
2023/04/11 00:01:44;;;;;;;47.55;21.67;;;;;;;;;;5078248;28;20040;-90
2023/04/11 00:04:10;;;;;;;47.20;21.92;;;;;;;;;;5061755;28;20123;-91
2023/04/11 00:06:35;;;;;;;49.35;23.20;;;;;;;;;;5078432;28;20036;-92
2023/04/11 00:09:01;;;;;;;48.13;23.30;;;;;;;;;;5081447;28;20020;-89
2023/04/11 00:11:26;;;;;;;54.15;21.98;;;;;;;;;;5105996;28;20024;-84
2023/04/11 00:13:56;;;;;;;46.13;21.95;;;;;;;;;;5086630;28;20032;-90
2023/04/11 00:16:23;;;;;;;47.77;21.37;;;;;;;;;;5097386;28;20043;-92
2023/04/11 00:18:49;;;;;;;51.10;21.95;;;;;;;;;;5096297;28;20023;-88
2023/04/11 00:21:15;;;;;;;51.30;21.63;;;;;;;;;;5060890;28;20051;-88
2023/04/11 00:23:40;;;;;;;47.75;22.80;;;;;;;;;;5076543;28;20044;-89
2023/04/11 00:26:06;;;;;;;50.20;22.50;;;;;;;;;;5095477;28;20446;-91
2023/04/11 00:28:31;;;;;;;52.22;22.88;;;;;;;;;;5096574;28;20026;-89
2023/04/11 00:30:57;;;;;;;46.17;21.65;;;;;;;;;;5103472;28;20075;-89
2023/04/11 00:33:22;;;;;;;50.33;22.30;;;;;;;;;;5112616;28;20040;-90
2023/04/11 00:35:48;;;;;;;53.80;22.15;;;;;;;;;;5095939;28;20501;-91
2023/04/11 00:38:13;;;;;;;47.97;22.40;;;;;;;;;;5094916;28;20306;-93
2023/04/11 00:40:39;;;;;;;50.97;23.70;;;;;;;;;;5095016;28;20039;-92
2023/04/11 00:43:04;;;;;;;52.45;23.15;;;;;;;;;;5077379;28;20024;-91
2023/04/11 00:45:30;;;;;;;47.90;21.77;;;;;;;;;;5076855;28;20089;-91
2023/04/11 00:47:55;;;;;;;52.70;22.80;;;;;;;;;;5078403;28;20114;-93
2023/04/11 00:50:23;;;;;;;46.80;22.00;;;;;;;;;;5096813;28;20439;-89
2023/04/11 00:52:49;;;;;;;52.05;23.88;;;;;;;;;;5122095;28;20004;-94
2023/04/11 00:55:15;;;;;;;60.05;23.58;;;;;;;;;;5104488;28;20341;-95
2023/04/11 00:57:41;;;;;;;52.17;23.48;;;;;;;;;;5097021;28;20421;-94
2023/04/11 01:00:09;;;;;;;51.58;23.15;;;;;;;;;;5080087;28;20032;-89
2023/04/11 01:02:36;;;;;;;51.17;23.25;;;;;;;;;;5081426;28;20115;-91
2023/04/11 01:05:03;;;;;;;56.47;23.23;;;;;;;;;;5076809;28;20036;-89
2023/04/11 01:07:28;;;;;;;54.33;22.77;;;;;;;;;;5060874;28;20111;-90
2023/04/11 01:09:55;;;;;;;52.92;23.70;;;;;;;;;;5043628;28;20165;-90
2023/04/11 01:12:20;;;;;;;50.50;23.27;;;;;;;;;;5095469;28;20031;-89
2023/04/11 01:14:46;;;;;;;51.60;23.50;;;;;;;;;;5089312;28;20500;-91
2023/04/11 01:17:13;;;;;;;56.78;23.67;;;;;;;;;;5060264;28;20020;-89
2023/04/11 01:19:38;;;;;;;51.22;22.98;;;;;;;;;;5094109;28;20477;-93
2023/04/11 01:22:04;;;;;;;51.25;23.63;;;;;;;;;;5076671;28;20035;-90
2023/04/11 01:24:29;;;;;;;50.83;23.55;;;;;;;;;;5059478;28;20425;-89
2023/04/11 01:26:55;;;;;;;55.13;24.27;;;;;;;;;;5063643;28;20085;-88
2023/04/11 01:29:21;;;;;;;49.17;22.48;;;;;;;;;;5085576;28;20028;-90
2023/04/11 01:31:48;;;;;;;53.17;23.60;;;;;;;;;;5100553;28;20021;-87
2023/04/11 01:34:13;;;;;;;54.30;23.50;;;;;;;;;;5087815;28;20012;-89
2023/04/11 01:36:40;;;;;;;51.30;23.60;;;;;;;;;;5068996;28;20034;-90
2023/04/11 01:39:05;;;;;;;53.40;23.00;;;;;;;;;;5059625;28;20043;-88
2023/04/11 01:41:31;;;;;;;51.92;23.63;;;;;;;;;;5076567;28;20036;-89
2023/04/11 01:43:56;;;;;;;55.20;23.40;;;;;;;;;;5059287;28;20453;-89
2023/04/11 01:46:22;;;;;;;55.97;24.80;;;;;;;;;;5095507;28;20036;-94
2023/04/11 01:48:56;;;;;;;54.92;23.27;;;;;;;;;;5077660;28;20047;-92
2023/04/11 01:51:21;;;;;;;59.45;23.90;;;;;;;;;;5101454;28;20024;-89
2023/04/11 01:53:47;;;;;;;54.00;24.30;;;;;;;;;;5076709;28;20134;-89
2023/04/11 01:56:12;;;;;;;58.05;24.52;;;;;;;;;;5107361;28;20020;-85
2023/04/11 01:58:38;;;;;;;57.28;24.73;;;;;;;;;;5095336;28;20036;-89
2023/04/11 02:01:04;;;;;;;55.10;24.23;;;;;;;;;;5075931;28;20074;-91
2023/04/11 02:03:30;;;;;;;54.42;24.92;;;;;;;;;;5093867;28;20060;-88
2023/04/11 02:05:55;;;;;;;54.20;23.83;;;;;;;;;;5096940;28;20055;-92
2023/04/11 02:08:21;;;;;;;58.55;24.27;;;;;;;;;;5061997;28;20020;-90
2023/04/11 02:10:46;;;;;;;49.60;21.58;;;;;;;;;;5081044;28;20032;-92
2023/04/11 02:13:12;;;;;;;54.75;23.85;;;;;;;;;;5099948;28;20057;-93
2023/04/11 02:15:37;;;;;;;53.80;23.33;;;;;;;;;;5082606;28;20414;-88
2023/04/11 02:18:02;;;;;;;53.85;21.98;;;;;;;;;;5103418;28;20345;-93
2023/04/11 02:20:28;;;;;;;47.83;20.65;;;;;;;;;;5120912;28;20537;-93
2023/04/11 02:22:53;;;;;;;44.13;19.20;;;;;;;;;;5120234;28;20027;-94
2023/04/11 02:25:19;;;;;;;46.78;20.35;;;;;;;;;;5103632;28;20446;-89
2023/04/11 02:27:44;;;;;;;45.70;20.65;;;;;;;;;;5120572;28;20020;-89
2023/04/11 02:30:10;;;;;;;46.42;19.27;;;;;;;;;;5122676;28;20034;-89
2023/04/11 02:32:39;;;;;;;46.15;20.15;;;;;;;;;;5103014;28;20422;-88
2023/04/11 02:35:06;;;;;;;47.10;19.55;;;;;;;;;;5089703;28;20038;-91
2023/04/11 02:37:32;;;;;;;44.58;19.52;;;;;;;;;;5130698;28;20028;-92
2023/04/11 02:39:57;;;;;;;49.17;20.63;;;;;;;;;;5106985;28;20380;-90
2023/04/11 02:42:22;;;;;;;48.92;20.95;;;;;;;;;;5101755;28;20019;-94
2023/04/11 02:44:48;;;;;;;42.30;19.83;;;;;;;;;;5088289;28;20073;-91
2023/04/11 02:47:13;;;;;;;50.70;19.98;;;;;;;;;;5120611;28;20035;-88
2023/04/11 02:49:41;;;;;;;47.50;20.02;;;;;;;;;;5122972;28;20024;-91
2023/04/11 02:52:06;;;;;;;45.85;18.70;;;;;;;;;;5101488;28;20406;-93
2023/04/11 02:54:32;;;;;;;48.63;20.33;;;;;;;;;;5082658;28;20114;-89
2023/04/11 02:56:57;;;;;;;43.83;20.23;;;;;;;;;;5099104;28;20032;-89
2023/04/11 02:59:23;;;;;;;52.03;20.95;;;;;;;;;;5126634;28;20350;-90
2023/04/11 03:01:48;;;;;;;49.92;20.55;;;;;;;;;;5081843;28;20039;-91
2023/04/11 03:04:13;;;;;;;49.10;20.55;;;;;;;;;;5118613;28;20039;-91
2023/04/11 03:06:39;;;;;;;50.03;21.05;;;;;;;;;;5119625;28;20073;-89
2023/04/11 03:09:05;;;;;;;52.85;22.23;;;;;;;;;;5106485;28;20045;-86
2023/04/11 03:11:30;;;;;;;48.13;21.33;;;;;;;;;;5118005;28;20405;-89
2023/04/11 03:13:56;;;;;;;49.17;20.88;;;;;;;;;;5117142;28;20062;-89
2023/04/11 03:16:21;;;;;;;51.25;21.10;;;;;;;;;;5117306;28;20059;-90
2023/04/11 03:18:46;;;;;;;56.55;22.60;;;;;;;;;;5116466;28;20020;-90
2023/04/11 03:21:12;;;;;;;51.05;21.20;;;;;;;;;;5100152;28;20065;-90
2023/04/11 03:23:37;;;;;;;53.13;21.38;;;;;;;;;;5099002;28;20039;-89
2023/04/11 03:26:06;;;;;;;50.30;20.45;;;;;;;;;;5099430;28;20035;-90
2023/04/11 03:28:31;;;;;;;50.60;21.17;;;;;;;;;;5116608;28;20054;-89
2023/04/11 03:30:57;;;;;;;50.20;20.92;;;;;;;;;;5116789;28;20133;-89
2023/04/11 03:33:22;;;;;;;47.65;20.58;;;;;;;;;;5098240;28;20024;-89
2023/04/11 03:35:48;;;;;;;47.20;20.27;;;;;;;;;;5098110;28;20441;-89
2023/04/11 03:38:13;;;;;;;48.80;20.08;;;;;;;;;;5098259;28;20114;-90
2023/04/11 03:40:39;;;;;;;47.40;21.35;;;;;;;;;;5130245;28;20022;-93
2023/04/11 03:43:04;;;;;;;44.70;20.05;;;;;;;;;;5082333;28;20387;-90
2023/04/11 03:45:30;;;;;;;51.05;20.88;;;;;;;;;;5098904;28;20052;-90
2023/04/11 03:47:55;;;;;;;47.85;20.65;;;;;;;;;;5104203;28;20040;-88
2023/04/11 03:50:21;;;;;;;52.70;22.08;;;;;;;;;;5115989;28;20477;-89
2023/04/11 03:52:46;;;;;;;54.83;22.77;;;;;;;;;;5098012;28;20023;-89
2023/04/11 03:55:12;;;;;;;58.50;21.83;;;;;;;;;;5098267;28;20127;-92
2023/04/11 03:57:37;;;;;;;52.15;20.90;;;;;;;;;;5116276;28;20160;-91
2023/04/11 04:00:06;;;;;;;52.92;22.20;;;;;;;;;;5120460;28;20090;-85
2023/04/11 04:02:31;;;;;;;52.17;21.63;;;;;;;;;;5129025;28;20124;-91
2023/04/11 04:04:57;;;;;;;60.42;23.58;;;;;;;;;;5119506;28;20032;-91
2023/04/11 04:07:26;;;;;;;56.20;22.15;;;;;;;;;;5097735;28;20020;-90
2023/04/11 04:09:52;;;;;;;52.33;21.50;;;;;;;;;;5097832;28;20042;-90
2023/04/11 04:12:20;;;;;;;52.35;20.77;;;;;;;;;;5115847;28;20110;-91
2023/04/11 04:14:46;;;;;;;45.88;19.92;;;;;;;;;;5097470;28;20040;-89
2023/04/11 04:17:12;;;;;;;48.42;20.95;;;;;;;;;;5097641;28;20431;-89
2023/04/11 04:19:38;;;;;;;53.45;21.45;;;;;;;;;;5094229;28;20067;-95
2023/04/11 04:22:04;;;;;;;48.75;20.85;;;;;;;;;;5097203;28;20020;-85
2023/04/11 04:24:30;;;;;;;49.50;21.45;;;;;;;;;;5102753;28;20059;-90
2023/04/11 04:27:02;;;;;;;55.35;23.55;;;;;;;;;;5099719;28;20036;-84
2023/04/11 04:29:32;;;;;;;57.75;24.15;;;;;;;;;;5095055;28;20114;-85
2023/04/11 04:32:00;;;;;;;58.60;23.65;;;;;;;;;;5094635;28;20035;-81
2023/04/11 04:34:27;;;;;;;55.13;23.42;;;;;;;;;;5095190;28;20128;-87
2023/04/11 04:36:58;;;;;;;54.83;23.70;;;;;;;;;;5093632;28;20142;-87
2023/04/11 04:39:24;;;;;;;58.85;22.08;;;;;;;;;;5095015;28;20028;-87
2023/04/11 04:41:56;;;;;;;51.97;21.05;;;;;;;;;;5099189;28;20028;-87
2023/04/11 04:44:25;;;;;;;55.03;22.73;;;;;;;;;;5100399;28;20361;-88
2023/04/11 04:46:54;;;;;;;51.78;21.98;;;;;;;;;;5109192;28;20051;-85
2023/04/11 04:49:19;;;;;;;62.90;23.27;;;;;;;;;;5060602;28;20044;-88
2023/04/11 04:51:45;;;;;;;66.03;25.30;;;;;;;;;;5113418;28;20016;-83
2023/04/11 04:54:10;;;;;;;61.88;24.25;;;;;;;;;;5117334;28;20087;-86
2023/04/11 04:56:36;;;;;;;57.05;21.58;;;;;;;;;;5114906;28;20054;-85
2023/04/11 04:59:01;;;;;;;55.88;20.30;;;;;;;;;;5084994;28;20130;-87
2023/04/11 05:01:27;;;;;;;56.00;22.30;;;;;;;;;;5095456;28;20119;-88
2023/04/11 05:03:59;;;;;;;56.70;22.85;;;;;;;;;;5107530;28;20047;-88
2023/04/11 05:06:30;;;;;;;60.05;24.88;;;;;;;;;;5096043;28;20464;-88
2023/04/11 05:08:59;;;;;;;57.15;23.05;;;;;;;;;;5095000;28;20439;-87
2023/04/11 05:11:26;;;;;;;57.50;23.23;;;;;;;;;;5094627;28;20036;-89
2023/04/11 05:13:52;;;;;;;54.92;22.75;;;;;;;;;;5093381;28;20032;-88
2023/04/11 05:16:18;;;;;;;51.95;21.08;;;;;;;;;;5093228;28;20089;-89
2023/04/11 05:18:43;;;;;;;54.67;22.73;;;;;;;;;;5095031;28;20082;-88
2023/04/11 05:21:09;;;;;;;61.92;22.40;;;;;;;;;;5096939;28;20085;-86
2023/04/11 05:23:34;;;;;;;55.22;22.15;;;;;;;;;;5112029;28;20020;-88
2023/04/11 05:26:00;;;;;;;54.53;21.77;;;;;;;;;;5100926;28;20482;-91
2023/04/11 05:28:25;;;;;;;59.78;20.85;;;;;;;;;;5098013;28;20525;-86
2023/04/11 05:30:51;;;;;;;60.25;22.17;;;;;;;;;;5115171;28;20043;-91
2023/04/11 05:33:17;;;;;;;57.25;22.75;;;;;;;;;;5117340;28;20035;-92
2023/04/11 05:35:42;;;;;;;55.97;22.45;;;;;;;;;;5114989;28;20031;-89
2023/04/11 05:38:08;;;;;;;66.43;24.27;;;;;;;;;;5102195;28;20031;-93
2023/04/11 05:40:35;;;;;;;54.38;22.60;;;;;;;;;;5080274;28;20040;-91
2023/04/11 05:43:01;;;;;;;60.80;22.35;;;;;;;;;;5099069;28;20027;-89
2023/04/11 05:45:26;;;;;;;54.50;22.05;;;;;;;;;;5137648;28;20111;-88
2023/04/11 05:47:51;;;;;;;55.97;22.48;;;;;;;;;;5109810;28;20364;-92
2023/04/11 05:50:17;;;;;;;64.55;24.15;;;;;;;;;;5092929;28;20379;-95
2023/04/11 05:52:42;;;;;;;59.83;23.65;;;;;;;;;;5092819;28;20028;-95
2023/04/11 05:55:08;;;;;;;67.72;24.10;;;;;;;;;;5126291;28;20042;-95
2023/04/11 05:57:34;;;;;;;59.13;23.48;;;;;;;;;;5106450;28;20122;-93
2023/04/11 06:00:00;;;;;;;62.90;25.08;;;;;;;;;;5123782;28;20055;-92
2023/04/11 06:02:26;;;;;;;61.70;25.67;;;;;;;;;;5105190;28;20028;-88
2023/04/11 06:04:52;;;;;;;50.95;23.05;;;;;;;;;;5124501;28;20065;-92
2023/04/11 06:07:18;;;;;;;49.97;22.73;;;;;;;;;;5134033;28;20074;-88
2023/04/11 06:09:43;;;;;;;39.78;19.55;;;;;;;;;;5107216;28;20031;-95
2023/04/11 06:12:08;;;;;;;38.35;19.17;;;;;;;;;;5107007;28;20027;-90
2023/04/11 06:14:34;;;;;;;113.47;47.85;;;;;;;;;;5102815;28;20467;-89
2023/04/11 06:16:59;;;;;;;63.50;28.08;;;;;;;;;;5103424;28;20438;-91
2023/04/11 06:19:25;;;;;;;52.22;28.98;;;;;;;;;;5102900;28;20085;-94
2023/04/11 06:21:50;;;;;;;47.20;24.05;;;;;;;;;;5087852;28;20028;-93
2023/04/11 06:24:17;;;;;;;42.33;20.23;;;;;;;;;;5119322;28;20031;-89
2023/04/11 06:26:44;;;;;;;36.83;20.10;;;;;;;;;;5109936;28;20101;-83
2023/04/11 06:29:10;;;;;;;35.70;17.52;;;;;;;;;;5110147;28;20035;-95
2023/04/11 06:31:35;;;;;;;37.45;19.20;;;;;;;;;;5067846;28;20039;-95
2023/04/11 06:34:00;;;;;;;33.13;18.02;;;;;;;;;;5102021;28;20408;-91
2023/04/11 06:36:26;;;;;;;31.88;17.10;;;;;;;;;;5081716;28;20404;-91
2023/04/11 06:38:52;;;;;;;33.42;17.45;;;;;;;;;;5082552;28;20035;-93
2023/04/11 06:41:17;;;;;;;31.38;17.50;;;;;;;;;;5100853;28;20043;-91
2023/04/11 06:43:43;;;;;;;31.70;17.60;;;;;;;;;;5102900;28;20092;-95
2023/04/11 06:46:08;;;;;;;32.28;18.00;;;;;;;;;;5087280;28;20040;-90
2023/04/11 06:48:34;;;;;;;37.83;17.55;;;;;;;;;;5098240;28;20036;-94
2023/04/11 06:50:59;;;;;;;35.00;17.08;;;;;;;;;;5086664;28;20042;-93
2023/04/11 06:53:25;;;;;;;33.97;18.27;;;;;;;;;;5103049;28;20038;-94
2023/04/11 06:55:50;;;;;;;31.05;17.30;;;;;;;;;;5083847;28;20433;-91
2023/04/11 06:58:16;;;;;;;49.40;25.33;;;;;;;;;;5088509;28;20102;-91
2023/04/11 07:00:41;;;;;;;32.78;17.08;;;;;;;;;;5104613;28;20575;-95
2023/04/11 07:03:07;;;;;;;38.17;17.70;;;;;;;;;;5066267;28;20353;-94
2023/04/11 07:05:34;;;;;;;33.17;17.40;;;;;;;;;;5101808;28;20062;-93
2023/04/11 07:07:59;;;;;;;33.55;18.30;;;;;;;;;;5108609;28;20051;-85
2023/04/11 07:10:25;;;;;;;32.90;18.55;;;;;;;;;;5108449;28;20047;-91
2023/04/11 07:12:50;;;;;;;47.25;19.15;;;;;;;;;;5102815;28;20036;-92
2023/04/11 07:15:16;;;;;;;36.88;18.08;;;;;;;;;;5083911;28;20032;-95
2023/04/11 07:17:41;;;;;;;41.13;25.05;;;;;;;;;;5105936;28;20098;-92
2023/04/11 07:20:10;;;;;;;35.95;21.60;;;;;;;;;;5114012;28;20078;-90
2023/04/11 07:22:36;;;;;;;38.28;19.08;;;;;;;;;;5117103;28;20044;-91
2023/04/11 07:25:04;;;;;;;31.63;17.77;;;;;;;;;;5095326;28;20058;-92
2023/04/11 07:27:31;;;;;;;41.28;19.05;;;;;;;;;;5116395;28;20008;-89
2023/04/11 07:29:57;;;;;;;38.00;18.35;;;;;;;;;;5119297;28;20015;-84
2023/04/11 07:32:22;;;;;;;49.03;17.00;;;;;;;;;;5119275;28;20016;-84
2023/04/11 07:34:47;;;;;;;51.22;18.35;;;;;;;;;;5102065;28;20004;-90
2023/04/11 07:37:13;;;;;;;43.75;17.40;;;;;;;;;;5108319;28;20038;-93
2023/04/11 07:39:39;;;;;;;52.83;18.40;;;;;;;;;;5084491;28;20024;-93
2023/04/11 07:42:05;;;;;;;30.85;14.50;;;;;;;;;;5110794;28;20043;-92
2023/04/11 07:44:31;;;;;;;31.27;15.20;;;;;;;;;;5100868;28;20032;-92
2023/04/11 07:46:57;;;;;;;30.02;13.98;;;;;;;;;;5099544;28;20105;-93
2023/04/11 07:49:22;;;;;;;31.58;14.93;;;;;;;;;;5102523;28;20043;-93
2023/04/11 07:51:47;;;;;;;31.02;14.35;;;;;;;;;;5112550;28;20031;-92
2023/04/11 07:54:13;;;;;;;28.55;13.52;;;;;;;;;;5086818;28;20028;-92
2023/04/11 07:56:38;;;;;;;30.35;14.18;;;;;;;;;;5107956;28;20032;-94
2023/04/11 07:59:04;;;;;;;44.22;14.70;;;;;;;;;;5106736;28;20056;-90
2023/04/11 08:01:30;;;;;;;27.35;14.50;;;;;;;;;;5115709;28;20016;-91
2023/04/11 08:03:55;;;;;;;24.00;13.50;;;;;;;;;;5097853;28;20032;-88
2023/04/11 08:06:21;;;;;;;27.17;12.30;;;;;;;;;;5110873;28;20114;-91
2023/04/11 08:08:47;;;;;;;27.55;12.93;;;;;;;;;;5089013;28;20040;-92
2023/04/11 08:11:13;;;;;;;46.78;22.45;;;;;;;;;;5109675;28;20016;-87
2023/04/11 08:13:42;;;;;;;36.00;17.63;;;;;;;;;;5111337;28;20047;-93
2023/04/11 08:16:09;;;;;;;71.57;19.50;;;;;;;;;;5079536;28;20380;-95
2023/04/11 08:18:34;;;;;;;30.55;15.07;;;;;;;;;;5078718;28;20513;-91
2023/04/11 08:21:01;;;;;;;32.22;16.17;;;;;;;;;;5097299;28;20055;-95
2023/04/11 08:23:28;;;;;;;23.98;13.27;;;;;;;;;;5079212;28;20105;-90
2023/04/11 08:25:53;;;;;;;37.08;14.30;;;;;;;;;;5096462;28;20059;-95
2023/04/11 08:28:19;;;;;;;30.52;12.90;;;;;;;;;;5097393;28;20445;-94
2023/04/11 08:30:45;;;;;;;23.83;12.13;;;;;;;;;;5094622;28;20078;-90
2023/04/11 08:33:11;;;;;;;25.95;14.90;;;;;;;;;;5112774;28;20028;-91
2023/04/11 08:35:41;;;;;;;27.73;14.63;;;;;;;;;;5078786;28;20036;-91
2023/04/11 08:38:07;;;;;;;33.25;13.90;;;;;;;;;;5096774;28;20020;-93
2023/04/11 08:40:32;;;;;;;30.17;15.23;;;;;;;;;;5094695;28;20028;-94
2023/04/11 08:42:59;;;;;;;38.05;15.38;;;;;;;;;;5077001;28;20036;-94
2023/04/11 08:45:24;;;;;;;29.67;15.13;;;;;;;;;;5077311;28;20024;-90
2023/04/11 08:47:50;;;;;;;34.53;15.57;;;;;;;;;;5095451;28;20088;-90
2023/04/11 08:50:15;;;;;;;50.42;18.17;;;;;;;;;;5096033;28;20024;-86
2023/04/11 08:52:41;;;;;;;29.75;14.18;;;;;;;;;;5099268;28;20024;-91
2023/04/11 08:55:06;;;;;;;36.22;14.85;;;;;;;;;;5082702;28;20026;-95
2023/04/11 08:57:33;;;;;;;26.88;15.07;;;;;;;;;;5104293;28;20152;-94
2023/04/11 09:00:06;;;;;;;34.88;14.27;;;;;;;;;;5099938;28;20433;-91
2023/04/11 09:02:32;;;;;;;29.95;14.43;;;;;;;;;;5063362;28;20047;-90
2023/04/11 09:04:57;;;;;;;29.65;13.73;;;;;;;;;;5077312;28;20039;-88
2023/04/11 09:07:23;;;;;;;36.95;16.67;;;;;;;;;;5077569;28;20397;-91
2023/04/11 09:09:49;;;;;;;46.30;21.10;;;;;;;;;;5082838;28;20365;-90
2023/04/11 09:12:15;;;;;;;52.72;30.02;;;;;;;;;;5095698;28;20081;-87
2023/04/11 09:14:40;;;;;;;45.08;27.02;;;;;;;;;;5082128;28;20028;-86
2023/04/11 09:17:14;;;;;;;36.63;20.13;;;;;;;;;;5109750;28;20043;-89
2023/04/11 09:19:42;;;;;;;30.02;13.88;;;;;;;;;;5045250;28;20058;-85
2023/04/11 09:22:11;;;;;;;28.65;13.93;;;;;;;;;;5095742;28;20115;-94
2023/04/11 09:24:37;;;;;;;28.98;12.90;;;;;;;;;;5080912;28;20032;-88
2023/04/11 09:27:15;;;;;;;33.20;13.93;;;;;;;;;;5095739;28;20085;-92
2023/04/11 09:29:47;;;;;;;26.67;13.00;;;;;;;;;;5079711;28;20028;-94
2023/04/11 09:32:28;;;;;;;28.00;13.70;;;;;;;;;;5081641;28;20028;-91
2023/04/11 09:35:19;;;;;;;25.45;13.43;;;;;;;;;;5107211;28;20042;-88
2023/04/11 09:37:55;;;;;;;26.35;11.90;;;;;;;;;;5114259;28;20051;-88
2023/04/11 09:40:22;;;;;;;22.90;11.88;;;;;;;;;;5085774;28;20035;-92
2023/04/11 09:42:48;;;;;;;23.48;12.38;;;;;;;;;;5097127;28;20036;-89
2023/04/11 09:45:20;;;;;;;21.60;11.90;;;;;;;;;;5114862;28;20059;-87
2023/04/11 09:47:46;;;;;;;20.60;11.38;;;;;;;;;;5110607;28;20016;-87
2023/04/11 09:50:13;;;;;;;19.38;10.52;;;;;;;;;;5082391;28;20024;-90
2023/04/11 09:52:40;;;;;;;19.52;10.98;;;;;;;;;;5104131;28;20457;-91
2023/04/11 09:55:09;;;;;;;21.60;10.55;;;;;;;;;;5095854;28;20028;-87
2023/04/11 09:57:35;;;;;;;19.27;10.70;;;;;;;;;;5095547;28;20016;-85
2023/04/11 10:00:05;;;;;;;26.10;12.70;;;;;;;;;;5079900;28;20024;-87
2023/04/11 10:02:30;;;;;;;21.05;11.52;;;;;;;;;;5098318;28;20035;-86
2023/04/11 10:04:59;;;;;;;18.27;10.95;;;;;;;;;;5097766;28;20051;-86
2023/04/11 10:07:24;;;;;;;23.02;11.27;;;;;;;;;;5077752;28;20043;-95
2023/04/11 10:09:49;;;;;;;17.30;10.23;;;;;;;;;;5086434;28;20023;-90
2023/04/11 10:12:32;;;;;;;22.17;11.55;;;;;;;;;;5084186;28;20475;-90
2023/04/11 10:15:05;;;;;;;21.58;10.85;;;;;;;;;;5096241;28;20105;-93
2023/04/11 10:17:32;;;;;;;21.52;11.18;;;;;;;;;;5094915;28;20028;-92
2023/04/11 10:19:59;;;;;;;24.15;10.10;;;;;;;;;;5095317;28;20086;-95
2023/04/11 10:22:40;;;;;;;16.80;9.68;;;;;;;;;;5077412;28;20383;-89
2023/04/11 10:25:18;;;;;;;17.83;10.45;;;;;;;;;;5094430;28;20040;-90
2023/04/11 10:27:59;;;;;;;18.75;10.68;;;;;;;;;;5061554;28;20028;-92
2023/04/11 10:30:40;;;;;;;17.42;10.27;;;;;;;;;;5068037;28;20039;-91
2023/04/11 10:33:12;;;;;;;18.75;10.90;;;;;;;;;;5099423;28;20105;-91
2023/04/11 10:35:57;;;;;;;22.77;10.00;;;;;;;;;;5080334;28;20020;-90
2023/04/11 10:38:47;;;;;;;19.50;10.68;;;;;;;;;;5109065;28;20028;-91
2023/04/11 10:41:33;;;;;;;;;;;;;;;;;;5100370;28;20118;-95
2023/04/11 10:44:24;;;;;;;21.65;10.27;;;;;;;;;;5067294;28;20314;-90
2023/04/11 10:46:52;;;;;;;21.77;11.05;;;;;;;;;;5055249;28;20055;-87
2023/04/11 10:49:31;;;;;;;19.08;9.82;;;;;;;;;;5077036;28;20028;-87
2023/04/11 10:52:15;;;;;;;21.92;10.95;;;;;;;;;;5058741;28;20044;-87
2023/04/11 10:54:40;;;;;;;19.02;10.35;;;;;;;;;;5076472;28;20378;-86
2023/04/11 10:57:07;;;;;;;18.10;10.48;;;;;;;;;;5059548;28;20028;-87
2023/04/11 10:59:34;;;;;;;18.65;9.85;;;;;;;;;;5082725;28;20055;-85
2023/04/11 11:02:00;;;;;;;22.63;10.15;;;;;;;;;;5076333;28;20434;-87
2023/04/11 11:04:36;;;;;;;20.58;11.18;;;;;;;;;;5076467;28;20035;-86
2023/04/11 11:07:05;;;;;;;24.75;13.43;;;;;;;;;;5043182;28;20362;-88
2023/04/11 11:09:30;;;;;;;21.80;9.95;;;;;;;;;;5059922;28;20043;-90
2023/04/11 11:12:09;;;;;;;21.85;11.02;;;;;;;;;;5076772;28;20029;-88
2023/04/11 11:14:35;;;;;;;15.85;9.38;;;;;;;;;;5076735;28;20033;-89
2023/04/11 11:17:01;;;;;;;19.88;10.63;;;;;;;;;;5076573;28;20085;-85
2023/04/11 11:19:27;;;;;;;20.23;10.18;;;;;;;;;;5088772;28;20025;-84
2023/04/11 11:21:53;;;;;;;18.42;9.30;;;;;;;;;;5077808;28;20043;-91
2023/04/11 11:24:25;;;;;;;25.30;9.80;;;;;;;;;;5058744;28;20024;-86
2023/04/11 11:26:53;;;;;;;19.27;9.25;;;;;;;;;;5058793;28;20028;-87
2023/04/11 11:29:30;;;;;;;19.83;10.00;;;;;;;;;;5058921;28;20098;-84
2023/04/11 11:31:56;;;;;;;24.58;9.88;;;;;;;;;;5041904;28;20039;-84
2023/04/11 11:34:28;;;;;;;20.95;10.65;;;;;;;;;;5075124;28;20523;-91
2023/04/11 11:36:55;;;;;;;34.85;13.88;;;;;;;;;;5093044;28;20519;-84
2023/04/11 11:39:20;;;;;;;29.92;15.50;;;;;;;;;;5084238;28;20036;-86
2023/04/11 11:41:46;;;;;;;20.58;10.60;;;;;;;;;;5081418;28;20048;-85
2023/04/11 11:44:28;;;;;;;22.73;13.05;;;;;;;;;;5077361;28;20059;-80
2023/04/11 11:47:16;;;;;;;66.20;32.58;;;;;;;;;;5077996;28;20038;-80
2023/04/11 11:49:54;;;;;;;20.60;11.05;;;;;;;;;;5077310;28;20115;-79
2023/04/11 11:52:50;;;;;;;35.00;17.30;;;;;;;;;;5095243;28;20024;-80
2023/04/11 11:55:18;;;;;;;21.60;10.43;;;;;;;;;;5056568;28;20189;-86
2023/04/11 11:57:45;;;;;;;20.38;9.73;;;;;;;;;;5095475;28;20367;-87
2023/04/11 12:00:11;;;;;;;33.53;13.95;;;;;;;;;;5077774;28;20051;-86
2023/04/11 12:02:37;;;;;;;18.02;10.32;;;;;;;;;;5050047;28;20039;-84
2023/04/11 12:05:06;;;;;;;32.90;12.80;;;;;;;;;;5077389;28;20123;-85
2023/04/11 12:07:32;;;;;;;43.50;16.70;;;;;;;;;;5095454;28;20064;-87
2023/04/11 12:09:59;;;;;;;31.27;14.77;;;;;;;;;;5077684;28;20028;-88
2023/04/11 12:12:40;;;;;;;23.98;11.27;;;;;;;;;;5077268;28;20504;-87
2023/04/11 12:15:10;;;;;;;22.33;11.52;;;;;;;;;;5061948;28;20105;-86
2023/04/11 12:17:36;;;;;;;28.88;13.93;;;;;;;;;;5060971;28;20415;-86
2023/04/11 12:20:09;;;;;;;38.03;11.55;;;;;;;;;;5077321;28;20047;-85
2023/04/11 12:22:35;;;;;;;26.27;10.88;;;;;;;;;;5084282;28;20036;-87
2023/04/11 12:25:11;;;;;;;26.25;11.48;;;;;;;;;;5079453;28;20028;-86
2023/04/11 12:27:37;;;;;;;23.98;10.57;;;;;;;;;;5077142;28;20110;-86
2023/04/11 12:30:03;;;;;;;20.67;10.05;;;;;;;;;;5095037;28;20024;-86
2023/04/11 12:32:29;;;;;;;23.83;11.70;;;;;;;;;;5095490;28;20023;-85
2023/04/11 12:34:55;;;;;;;24.10;10.57;;;;;;;;;;5076787;28;20441;-86
2023/04/11 12:37:20;;;;;;;24.10;11.02;;;;;;;;;;5075280;28;20024;-87
2023/04/11 12:39:46;;;;;;;20.15;9.98;;;;;;;;;;5090857;28;20051;-88
2023/04/11 12:42:11;;;;;;;20.55;10.70;;;;;;;;;;5121677;28;20032;-88
2023/04/11 12:44:37;;;;;;;25.13;11.73;;;;;;;;;;5124917;28;20078;-89
2023/04/11 12:47:02;;;;;;;18.08;10.30;;;;;;;;;;5097885;28;20027;-88
2023/04/11 12:49:28;;;;;;;20.73;10.50;;;;;;;;;;5098667;28;20108;-88
2023/04/11 12:51:53;;;;;;;35.63;12.10;;;;;;;;;;5132157;28;20091;-88
2023/04/11 12:54:19;;;;;;;24.10;12.07;;;;;;;;;;5135786;28;20031;-88
2023/04/11 12:56:44;;;;;;;18.33;10.20;;;;;;;;;;5098983;28;20069;-88
2023/04/11 12:59:10;;;;;;;21.35;10.48;;;;;;;;;;5137653;28;20083;-86
2023/04/11 13:01:36;;;;;;;21.15;11.23;;;;;;;;;;5129324;28;20036;-89
2023/04/11 13:04:02;;;;;;;20.13;11.20;;;;;;;;;;5113392;28;20052;-87
2023/04/11 13:06:29;;;;;;;29.20;11.45;;;;;;;;;;5100385;28;20035;-86
2023/04/11 13:08:57;;;;;;;75.43;28.33;;;;;;;;;;5081330;28;20028;-85
2023/04/11 13:11:22;;;;;;;25.70;12.07;;;;;;;;;;5094684;28;20031;-85
2023/04/11 13:13:49;;;;;;;51.20;29.00;;;;;;;;;;5094180;28;20032;-86
2023/04/11 13:16:14;;;;;;;37.40;18.95;;;;;;;;;;5076491;28;20036;-86
2023/04/11 13:18:40;;;;;;;36.20;21.45;;;;;;;;;;5075925;28;20024;-85
2023/04/11 13:21:07;;;;;;;18.30;11.13;;;;;;;;;;5094320;28;20051;-86
2023/04/11 13:23:33;;;;;;;23.85;10.82;;;;;;;;;;5044867;28;20016;-87
2023/04/11 13:25:59;;;;;;;21.20;10.95;;;;;;;;;;5076376;28;20063;-86
2023/04/11 13:28:25;;;;;;;23.02;11.85;;;;;;;;;;5094010;28;20019;-87
2023/04/11 13:30:51;;;;;;;25.30;11.50;;;;;;;;;;5075882;28;20028;-86
2023/04/11 13:33:17;;;;;;;18.73;10.77;;;;;;;;;;5075593;28;20050;-86
2023/04/11 13:35:42;;;;;;;26.08;12.85;;;;;;;;;;5094074;28;20032;-91
2023/04/11 13:38:11;;;;;;;27.23;11.25;;;;;;;;;;5093892;28;20086;-92
2023/04/11 13:40:38;;;;;;;24.15;11.23;;;;;;;;;;5097197;28;20133;-91
2023/04/11 13:43:04;;;;;;;17.90;11.48;;;;;;;;;;5080494;28;20046;-90
2023/04/11 13:45:29;;;;;;;23.85;13.02;;;;;;;;;;5093292;28;20098;-90
2023/04/11 13:47:56;;;;;;;27.17;11.93;;;;;;;;;;5118739;28;20027;-90
2023/04/11 13:50:22;;;;;;;22.92;11.45;;;;;;;;;;5115669;28;20020;-92
2023/04/11 13:52:47;;;;;;;21.58;12.57;;;;;;;;;;5115126;28;20035;-90
2023/04/11 13:55:14;;;;;;;34.88;13.38;;;;;;;;;;5115706;28;20068;-90
2023/04/11 13:57:41;;;;;;;38.75;13.30;;;;;;;;;;5125072;28;20079;-88
2023/04/11 14:00:10;;;;;;;27.27;12.50;;;;;;;;;;5124491;28;20012;-89
2023/04/11 14:02:35;;;;;;;27.38;11.60;;;;;;;;;;5114995;28;20028;-89
2023/04/11 14:05:00;;;;;;;41.30;13.30;;;;;;;;;;5096300;28;20066;-89
2023/04/11 14:07:26;;;;;;;24.48;11.75;;;;;;;;;;5140459;28;20084;-86
2023/04/11 14:09:51;;;;;;;22.25;11.00;;;;;;;;;;5139178;28;20094;-89
2023/04/11 14:12:17;;;;;;;27.45;12.55;;;;;;;;;;5137901;28;20043;-93
2023/04/11 14:14:42;;;;;;;33.83;19.90;;;;;;;;;;5135683;28;20036;-91
2023/04/11 14:17:08;;;;;;;27.80;13.15;;;;;;;;;;5100134;28;20046;-89
2023/04/11 14:19:34;;;;;;;28.88;14.18;;;;;;;;;;5131117;28;20709;-89